This is the latest recevied weather packets stored in our database for station/object KE0PRS. If no packets are shown the sender has not sent any weather packets the latest 10 day(s).
| Time | Temp. | Humidity | Pressure | Rain* | Wind** | Luminosity | Snow |
|---|---|---|---|---|---|---|---|
| 1777901629 | 15.56° C | 51% | 1004.9 hPa | 0 mm | - | 174 W/m² | - |
| 1777901326 | 15° C | 53% | 1004.9 hPa | 0 mm | - | 126 W/m² | - |
| 1777901023 | 13.89° C | 55% | 1004.9 hPa | 0 mm | - | 79 W/m² | - |
| 1777900721 | 13.89° C | 56% | 1005 hPa | 0 mm | - | 79 W/m² | - |
| 1777900417 | 13.33° C | 56% | 1005 hPa | 0 mm | - | 51 W/m² | - |
| 1777900115 | 12.78° C | 56% | 1005 hPa | 0 mm | - | 56 W/m² | - |
| 1777899811 | 12.78° C | 58% | 1004.9 hPa | 0 mm | - | 52 W/m² | - |
| 1777899508 | 12.22° C | 59% | 1005 hPa | 0 mm | - | 51 W/m² | - |
| 1777899206 | 11.67° C | 60% | 1005 hPa | 0 mm | - | 42 W/m² | - |
| 1777898903 | 11.67° C | 61% | 1004.9 hPa | 0 mm | - | 67 W/m² | - |
| 1777898600 | 11.67° C | 60% | 1005 hPa | 0 mm | - | 36 W/m² | - |
| 1777898297 | 11.67° C | 61% | 1004.8 hPa | 0 mm | - | 30 W/m² | - |
| 1777897994 | 11.11° C | 61% | 1004.6 hPa | 0 mm | - | 29 W/m² | - |
| 1777897690 | 11.11° C | 61% | 1004.7 hPa | 0 mm | - | 27 W/m² | - |
| 1777897387 | 11.11° C | 61% | 1004.8 hPa | 0 mm | - | 25 W/m² | - |
| 1777897083 | 11.11° C | 62% | 1004.8 hPa | 0 mm | - | 23 W/m² | - |
| 1777896780 | 11.11° C | 63% | 1004.9 hPa | 0 mm | - | 21 W/m² | - |
| 1777896477 | 11.11° C | 63% | 1004.8 hPa | 0 mm | - | 18 W/m² | - |
| 1777896174 | 11.11° C | 63% | 1004.7 hPa | 0 mm | - | 15 W/m² | - |
| 1777895872 | 11.67° C | 61% | 1004.5 hPa | 0 mm | - | 12 W/m² | - |
| 1777895569 | 11.67° C | 61% | 1004.6 hPa | 0 mm | - | 10 W/m² | - |
| 1777895266 | 12.22° C | 60% | 1004.5 hPa | 0 mm | - | 7 W/m² | - |
| 1777894964 | 12.78° C | 58% | 1004.4 hPa | 0 mm | - | 4 W/m² | - |
| 1777894661 | 12.78° C | 58% | 1004.5 hPa | 0 mm | - | 3 W/m² | - |
| 1777894358 | 12.78° C | 58% | 1004.4 hPa | 0 mm | - | 1 W/m² | - |
* Rain latest hour (hover to see other rain measurements)
** Current wind speed in m/s (hover to see current wind gust speed)